バミューダ の空港の天気 - METARとTAF

バミューダ国際空港 ( TXKF / BDA ) - バミューダ諸島 Ferry Reach
飛行場実況気象(Metar)
観測時間06/17 14:55 ADT (06/17 17:55 UTC)
風向・風速南南西 5m/s
視程10km以上
天気現象
全天の4割程度の雲 雲底高度 610m
全天の4割程度の雲 雲底高度 2440m
全天の4割程度の雲 雲底高度 9140m
気温28℃
湿度74%
気圧1023hPa
METARTXKF 171755Z 20010KT 9999 SCT020 SCT080 SCT300 28/23 Q1023 RMK CB DSNT NW TCU DSNT W-N
過去の天気等 Google飛行場航空写真 Wunderground天気予報

過去48時間のMETAR

飛行場予報(TAF)
発表時間: 6/17 14:31 ADT (6/17 17:31 UTC)
予報対象時間: 17日15時 ADT ~ 18日15時 ADT
風向・風速南西 5m/s
視程10km以上
少しの雲 雲底高度 370m
全天の4割程度の雲 雲底高度 610m
全天の8割程度の雲 雲底高度 9140m
17日15時 ADT ~ 17日21時 ADT に 確率 40% で一時的に
視程3200m
天気現象しゅう雨
全天の8割程度の雲 雲底高度 370m
TAF TXKF 171731Z 1718/1818 23009KT 9999 FEW012 SCT020 BKN300
PROB40 TEMPO 1718/1724 3200 SHRA BKN012